Time;durP1;ratioP1;P1;durP2;ratioP2;P2;SDS_P1;SDS_P2;PMS_P1;PMS_P2;Temp;Humidity;BMP_temperature;BMP_pressure;BME280_temperature;BME280_humidity;BME280_pressure;Samples;Min_cycle;Max_cycle;Signal;HPM_P1;HPM_P2
2022/08/19 11:01:49;;;;;;;2.65;2.42;;;;;;;;;;4172450;27;21391;-38
2022/08/19 11:03:52;;;;;;;2.40;2.20;;;;;;;;;;4152875;28;20057;-38
2022/08/19 11:06:06;;;;;;;2.58;2.35;;;;;;;;;;4150742;28;20061;-41
2022/08/19 11:08:11;;;;;;;3.05;2.78;;;;;;;;;;4163017;28;20068;-42
2022/08/19 11:10:14;;;;;;;3.85;2.45;;;;;;;;;;4155432;28;20050;-42
2022/08/19 11:12:16;;;;;;;2.60;2.40;;;;;;;;;;4146572;28;20057;-43
2022/08/19 11:14:20;;;;;;;2.78;2.58;;;;;;;;;;4148458;28;20722;-43
2022/08/19 11:16:25;;;;;;;3.00;2.50;;;;;;;;;;4152138;28;20543;-42
2022/08/19 11:18:27;;;;;;;3.58;2.75;;;;;;;;;;4154195;28;20534;-41
2022/08/19 11:20:29;;;;;;;2.38;2.17;;;;;;;;;;4153101;28;20053;-41
2022/08/19 11:22:31;;;;;;;3.28;2.40;;;;;;;;;;4164215;28;20115;-43
2022/08/19 11:24:32;;;;;;;2.42;2.22;;;;;;;;;;4163360;28;21045;-43
2022/08/19 11:26:34;;;;;;;2.35;2.13;;;;;;;;;;4160862;28;20191;-44
2022/08/19 11:28:36;;;;;;;2.17;1.98;;;;;;;;;;4161856;28;20053;-40
2022/08/19 11:30:38;;;;;;;3.67;2.22;;;;;;;;;;4163362;28;20053;-40
2022/08/19 11:32:40;;;;;;;2.90;2.40;;;;;;;;;;4151437;28;20138;-41
2022/08/19 11:34:42;;;;;;;2.10;1.98;;;;;;;;;;4160978;28;20076;-43
2022/08/19 11:36:44;;;;;;;3.50;2.22;;;;;;;;;;4153331;28;20064;-41
2022/08/19 11:38:48;;;;;;;2.92;2.50;;;;;;;;;;4159443;28;20572;-40
2022/08/19 11:40:56;;;;;;;2.90;2.20;;;;;;;;;;4164986;28;20060;-41
2022/08/19 11:42:58;;;;;;;2.10;2.00;;;;;;;;;;4161634;28;20053;-41
2022/08/19 11:45:00;;;;;;;2.53;2.33;;;;;;;;;;4157945;28;20061;-41
2022/08/19 11:47:01;;;;;;;2.63;2.03;;;;;;;;;;4150347;28;20057;-40
2022/08/19 11:49:03;;;;;;;2.40;2.20;;;;;;;;;;4149692;28;20091;-41
2022/08/19 11:51:10;;;;;;;2.58;2.38;;;;;;;;;;4157955;28;20107;-41
2022/08/19 11:53:11;;;;;;;4.10;2.33;;;;;;;;;;4147470;28;20104;-41
2022/08/19 11:55:13;;;;;;;3.95;2.50;;;;;;;;;;4151249;28;20426;-41
2022/08/19 11:57:16;;;;;;;2.50;2.30;;;;;;;;;;4158417;28;20103;-41
2022/08/19 11:59:17;;;;;;;2.65;2.45;;;;;;;;;;4158006;28;21027;-40
2022/08/19 12:01:21;;;;;;;4.32;2.25;;;;;;;;;;4150432;28;20057;-42
2022/08/19 12:03:22;;;;;;;4.03;2.38;;;;;;;;;;4157081;28;20099;-41
2022/08/19 12:05:23;;;;;;;2.53;2.33;;;;;;;;;;4143737;28;20508;-42
2022/08/19 12:07:24;;;;;;;3.40;2.40;;;;;;;;;;4154702;28;20434;-42
2022/08/19 12:09:26;;;;;;;3.53;2.50;;;;;;;;;;4153278;28;20088;-42
2022/08/19 12:11:27;;;;;;;2.50;2.30;;;;;;;;;;4160214;28;20517;-41
2022/08/19 12:13:30;;;;;;;2.80;2.50;;;;;;;;;;4147960;28;20482;-41
2022/08/19 12:15:35;;;;;;;2.88;2.40;;;;;;;;;;4149621;28;20069;-42
2022/08/19 12:17:36;;;;;;;2.60;2.40;;;;;;;;;;4151401;28;20552;-43
2022/08/19 12:19:39;;;;;;;2.95;2.70;;;;;;;;;;4148835;28;20103;-41
2022/08/19 12:21:40;;;;;;;3.50;2.58;;;;;;;;;;4139048;28;20064;-42
2022/08/19 12:23:42;;;;;;;2.92;2.63;;;;;;;;;;4148664;28;20060;-42
2022/08/19 12:25:51;;;;;;;3.35;2.40;;;;;;;;;;4150404;28;20107;-42
2022/08/19 12:27:52;;;;;;;2.60;2.40;;;;;;;;;;4148993;28;20139;-42
2022/08/19 12:29:54;;;;;;;2.97;2.70;;;;;;;;;;4143437;28;20068;-42
2022/08/19 12:32:00;;;;;;;2.60;2.40;;;;;;;;;;4165870;28;20122;-43
2022/08/19 12:34:02;;;;;;;5.63;2.95;;;;;;;;;;4146756;28;20131;-42
2022/08/19 12:36:05;;;;;;;2.92;2.67;;;;;;;;;;4145856;28;20609;-41
2022/08/19 12:38:06;;;;;;;2.50;2.30;;;;;;;;;;4144531;28;20198;-43
2022/08/19 12:40:08;;;;;;;3.83;2.67;;;;;;;;;;4146107;28;20057;-41
2022/08/19 12:42:11;;;;;;;2.10;2.00;;;;;;;;;;4152166;28;20119;-37
2022/08/19 12:44:12;;;;;;;4.25;2.60;;;;;;;;;;4150751;28;20061;-38
2022/08/19 12:46:14;;;;;;;2.60;2.22;;;;;;;;;;4146322;28;21947;-37
2022/08/19 12:48:15;;;;;;;3.42;2.25;;;;;;;;;;4148172;28;20775;-43
2022/08/19 12:50:16;;;;;;;5.15;2.50;;;;;;;;;;4146806;28;20099;-41
2022/08/19 12:52:20;;;;;;;2.30;2.10;;;;;;;;;;4146314;28;20045;-40
2022/08/19 12:54:21;;;;;;;2.67;2.47;;;;;;;;;;4147455;28;20053;-42
2022/08/19 12:56:23;;;;;;;2.40;2.20;;;;;;;;;;4142781;28;21827;-41
2022/08/19 12:58:24;;;;;;;3.88;2.47;;;;;;;;;;4149652;28;20451;-41
2022/08/19 13:00:25;;;;;;;2.63;2.42;;;;;;;;;;4147178;28;20053;-41
2022/08/19 13:02:26;;;;;;;2.78;2.40;;;;;;;;;;4143226;28;20516;-42
2022/08/19 13:04:27;;;;;;;4.50;2.47;;;;;;;;;;4148108;28;20076;-43
2022/08/19 13:06:28;;;;;;;3.70;2.28;;;;;;;;;;4147237;28;20517;-41
2022/08/19 13:08:29;;;;;;;2.35;2.15;;;;;;;;;;4149343;28;20195;-41
2022/08/19 13:10:36;;;;;;;2.28;2.08;;;;;;;;;;4150347;28;20706;-41
2022/08/19 13:12:38;;;;;;;2.63;2.42;;;;;;;;;;4143532;28;20057;-41
2022/08/19 13:14:40;;;;;;;2.30;2.10;;;;;;;;;;4148246;28;20049;-42
2022/08/19 13:16:42;;;;;;;2.60;2.40;;;;;;;;;;4148131;28;20483;-42
2022/08/19 13:18:47;;;;;;;2.67;2.38;;;;;;;;;;4154963;28;20053;-41
2022/08/19 13:20:48;;;;;;;2.33;2.13;;;;;;;;;;4149674;28;20054;-42
2022/08/19 13:22:49;;;;;;;2.30;2.10;;;;;;;;;;4155158;28;20497;-43
2022/08/19 13:24:50;;;;;;;2.50;2.30;;;;;;;;;;4155251;28;20438;-41
2022/08/19 13:26:52;;;;;;;4.40;2.25;;;;;;;;;;4152845;28;20068;-41
2022/08/19 13:33:35;;;;;;;2.63;2.42;;;;;;;;;;4152035;28;20064;-41
2022/08/19 13:35:48;;;;;;;2.47;2.28;;;;;;;;;;4151818;28;20092;-41
2022/08/19 13:37:50;;;;;;;4.45;2.38;;;;;;;;;;4152783;28;20740;-41
2022/08/19 13:39:51;;;;;;;2.60;2.40;;;;;;;;;;4146508;28;20107;-41
2022/08/19 13:41:52;;;;;;;3.00;2.80;;;;;;;;;;4138651;28;20065;-41
2022/08/19 13:43:54;;;;;;;2.33;2.13;;;;;;;;;;4153575;28;20386;-41
2022/08/19 13:45:55;;;;;;;2.28;2.08;;;;;;;;;;4154045;28;20057;-43
2022/08/19 13:47:57;;;;;;;2.22;2.00;;;;;;;;;;4157192;28;20129;-41
2022/08/19 13:49:58;;;;;;;2.50;2.20;;;;;;;;;;4155432;28;20053;-41
2022/08/19 13:51:59;;;;;;;2.80;2.60;;;;;;;;;;4152637;28;20064;-41
2022/08/19 13:54:00;;;;;;;2.30;2.10;;;;;;;;;;4159271;28;20484;-41
2022/08/19 13:56:06;;;;;;;2.97;2.38;;;;;;;;;;4154260;28;20159;-42
2022/08/19 13:58:07;;;;;;;2.10;1.90;;;;;;;;;;4153892;28;20831;-42
2022/08/19 14:00:17;;;;;;;3.05;2.60;;;;;;;;;;4154607;28;20084;-41
2022/08/19 14:02:19;;;;;;;2.53;2.33;;;;;;;;;;4153664;28;20515;-41
2022/08/19 14:04:20;;;;;;;2.50;2.08;;;;;;;;;;4147182;28;20060;-41
2022/08/19 14:06:22;;;;;;;2.90;2.03;;;;;;;;;;4148513;28;20496;-41
2022/08/19 14:08:23;;;;;;;2.40;2.20;;;;;;;;;;4148457;28;20127;-41
2022/08/19 14:10:25;;;;;;;2.47;2.28;;;;;;;;;;4155767;28;20069;-46
2022/08/19 14:12:26;;;;;;;2.15;1.95;;;;;;;;;;4150034;28;20573;-41
2022/08/19 14:14:28;;;;;;;2.60;2.40;;;;;;;;;;4150593;28;20061;-41
2022/08/19 14:16:30;;;;;;;2.65;2.45;;;;;;;;;;4155140;28;20127;-41
2022/08/19 14:18:31;;;;;;;2.53;2.33;;;;;;;;;;4148748;28;20175;-41
2022/08/19 14:20:36;;;;;;;5.20;3.10;;;;;;;;;;4149201;28;20128;-42
2022/08/19 14:22:40;;;;;;;2.50;2.30;;;;;;;;;;4154156;28;20064;-41
2022/08/19 14:24:41;;;;;;;2.55;2.35;;;;;;;;;;4152558;28;20065;-41
2022/08/19 14:26:42;;;;;;;2.70;2.50;;;;;;;;;;4152733;28;20457;-41
2022/08/19 14:28:43;;;;;;;2.17;2.00;;;;;;;;;;4150657;28;20058;-42
2022/08/19 14:30:44;;;;;;;2.53;2.33;;;;;;;;;;4141967;28;20531;-41
2022/08/19 14:32:46;;;;;;;2.80;2.60;;;;;;;;;;4146611;28;20073;-41
2022/08/19 14:34:47;;;;;;;2.60;2.40;;;;;;;;;;4147220;28;20724;-41
2022/08/19 14:36:48;;;;;;;2.42;2.22;;;;;;;;;;4145218;28;20123;-41
2022/08/19 14:38:52;;;;;;;2.35;2.17;;;;;;;;;;4152864;28;20049;-41
2022/08/19 14:40:54;;;;;;;2.25;2.05;;;;;;;;;;4150398;28;20104;-41
2022/08/19 14:42:59;;;;;;;2.55;2.30;;;;;;;;;;4148750;28;20064;-41
2022/08/19 14:45:00;;;;;;;2.40;2.20;;;;;;;;;;4154102;28;20057;-41
2022/08/19 14:47:02;;;;;;;2.20;2.00;;;;;;;;;;4152246;28;20088;-41
2022/08/19 14:49:04;;;;;;;2.63;2.42;;;;;;;;;;4147363;28;20068;-42
2022/08/19 14:51:06;;;;;;;2.70;2.33;;;;;;;;;;4153154;28;20083;-41
2022/08/19 14:53:08;;;;;;;2.42;2.22;;;;;;;;;;4158322;28;20111;-41
2022/08/19 14:55:09;;;;;;;2.17;2.03;;;;;;;;;;4159994;28;20087;-41
2022/08/19 14:57:14;;;;;;;2.55;2.35;;;;;;;;;;4156685;28;20099;-41
2022/08/19 14:59:16;;;;;;;2.63;2.42;;;;;;;;;;4158169;28;20049;-41
2022/08/19 15:01:20;;;;;;;3.15;2.15;;;;;;;;;;4157090;28;20104;-41
2022/08/19 15:03:21;;;;;;;1.92;1.83;;;;;;;;;;4160064;28;20123;-41
2022/08/19 15:05:23;;;;;;;2.28;2.17;;;;;;;;;;4154556;28;20779;-41
2022/08/19 15:07:24;;;;;;;2.42;2.22;;;;;;;;;;4159571;28;20461;-41
2022/08/19 15:09:25;;;;;;;3.03;2.05;;;;;;;;;;4158298;28;20057;-41
2022/08/19 15:11:27;;;;;;;2.17;1.98;;;;;;;;;;4157512;28;20053;-41
2022/08/19 15:13:29;;;;;;;2.63;2.05;;;;;;;;;;4157015;28;20057;-41
2022/08/19 15:15:30;;;;;;;1.92;1.83;;;;;;;;;;4153914;28;20080;-42
2022/08/19 15:17:32;;;;;;;2.15;1.95;;;;;;;;;;4149113;28;20569;-41
2022/08/19 15:19:35;;;;;;;3.38;1.95;;;;;;;;;;4148531;28;20049;-41
2022/08/19 15:21:36;;;;;;;1.75;1.65;;;;;;;;;;4158713;28;20130;-41
2022/08/19 15:23:38;;;;;;;2.42;2.05;;;;;;;;;;4159957;28;20563;-41
2022/08/19 15:25:41;;;;;;;2.17;1.98;;;;;;;;;;4160491;28;20053;-41
2022/08/19 15:27:43;;;;;;;1.88;1.77;;;;;;;;;;4159008;28;20058;-42
2022/08/19 15:29:45;;;;;;;2.28;2.10;;;;;;;;;;4160194;28;20053;-41
2022/08/19 15:31:46;;;;;;;2.35;2.15;;;;;;;;;;4160176;28;20365;-41
2022/08/19 15:33:48;;;;;;;2.42;2.22;;;;;;;;;;4159957;28;20125;-41
2022/08/19 15:35:50;;;;;;;2.15;1.95;;;;;;;;;;4160639;28;20076;-41
2022/08/19 15:37:52;;;;;;;2.17;2.00;;;;;;;;;;4159056;28;20054;-42
2022/08/19 15:39:53;;;;;;;2.55;2.20;;;;;;;;;;4160464;28;20064;-41
2022/08/19 15:41:54;;;;;;;2.20;2.00;;;;;;;;;;4160528;28;20069;-41
2022/08/19 15:43:58;;;;;;;2.13;1.92;;;;;;;;;;4158308;28;20110;-41
2022/08/19 15:46:00;;;;;;;2.17;1.98;;;;;;;;;;4160450;28;20061;-41
2022/08/19 15:48:03;;;;;;;1.95;1.80;;;;;;;;;;4162137;28;20053;-41
2022/08/19 15:50:16;;;;;;;1.83;1.73;;;;;;;;;;4163598;28;20057;-41
2022/08/19 15:52:19;;;;;;;1.95;1.80;;;;;;;;;;4163286;28;20747;-41
2022/08/19 15:54:21;;;;;;;1.70;1.60;;;;;;;;;;4163081;28;20455;-42
2022/08/19 15:56:22;;;;;;;1.77;1.67;;;;;;;;;;4163311;28;20057;-41
2022/08/19 16:07:46;;;;;;;1.85;1.60;;;;;;;;;;4163290;28;20126;-41
2022/08/19 16:09:47;;;;;;;1.90;1.80;;;;;;;;;;4162143;28;20112;-41
2022/08/19 16:11:49;;;;;;;3.00;2.20;;;;;;;;;;4163321;28;20061;-41
2022/08/19 16:13:52;;;;;;;2.30;2.10;;;;;;;;;;4128989;28;20129;-41
2022/08/19 16:15:56;;;;;;;2.00;1.83;;;;;;;;;;4163256;28;20068;-41
2022/08/19 16:18:00;;;;;;;2.55;2.05;;;;;;;;;;4162787;28;20100;-41
2022/08/19 16:20:03;;;;;;;2.70;2.15;;;;;;;;;;4161636;28;20111;-41
2022/08/19 16:22:05;;;;;;;1.80;1.70;;;;;;;;;;4163229;28;20049;-41
2022/08/19 16:24:07;;;;;;;1.88;1.77;;;;;;;;;;4161686;28;20127;-42
2022/08/19 16:26:08;;;;;;;1.90;1.70;;;;;;;;;;4163023;28;20057;-41
2022/08/19 16:28:09;;;;;;;2.55;1.95;;;;;;;;;;4162767;28;20049;-41
2022/08/19 16:30:10;;;;;;;2.03;1.90;;;;;;;;;;4162838;28;20060;-41
2022/08/19 16:32:12;;;;;;;2.50;2.30;;;;;;;;;;4160963;28;20061;-40
2022/08/19 16:34:13;;;;;;;2.50;2.17;;;;;;;;;;4161831;28;20053;-41
2022/08/19 16:36:14;;;;;;;1.63;1.48;;;;;;;;;;4163547;28;20103;-41
2022/08/19 16:38:15;;;;;;;2.33;1.90;;;;;;;;;;4162697;28;20507;-41
2022/08/19 16:40:16;;;;;;;2.10;2.00;;;;;;;;;;4162929;28;20107;-42
2022/08/19 16:42:18;;;;;;;1.70;1.60;;;;;;;;;;4161878;28;20056;-42
2022/08/19 16:44:19;;;;;;;2.42;1.70;;;;;;;;;;4162855;28;20115;-41
2022/08/19 16:46:22;;;;;;;1.70;1.60;;;;;;;;;;4162522;28;20057;-41
2022/08/19 16:48:28;;;;;;;1.88;1.73;;;;;;;;;;4162000;28;20441;-41
2022/08/19 16:50:29;;;;;;;2.08;1.90;;;;;;;;;;4148843;28;20156;-41
2022/08/19 16:52:30;;;;;;;2.13;1.98;;;;;;;;;;4145758;28;20128;-41
2022/08/19 16:54:33;;;;;;;1.90;1.67;;;;;;;;;;4145703;28;20084;-41
2022/08/19 16:56:34;;;;;;;2.15;1.95;;;;;;;;;;4146121;28;20519;-42
2022/08/19 16:58:35;;;;;;;1.80;1.70;;;;;;;;;;4144068;28;20088;-41
2022/08/19 17:00:37;;;;;;;1.83;1.73;;;;;;;;;;4148091;28;20045;-41
2022/08/19 17:02:38;;;;;;;2.03;1.83;;;;;;;;;;4157958;28;20054;-41
2022/08/19 17:04:39;;;;;;;1.63;1.52;;;;;;;;;;4163593;28;20064;-41
2022/08/19 17:06:42;;;;;;;2.22;2.03;;;;;;;;;;4158255;28;20104;-41
2022/08/19 17:08:45;;;;;;;2.35;1.90;;;;;;;;;;4164231;28;20103;-41
2022/08/19 17:10:47;;;;;;;1.80;1.70;;;;;;;;;;4164389;28;20046;-41
2022/08/19 17:12:49;;;;;;;1.70;1.60;;;;;;;;;;4163907;28;20054;-41
2022/08/19 17:14:50;;;;;;;1.80;1.70;;;;;;;;;;4162829;28;20457;-41
2022/08/19 17:16:52;;;;;;;1.70;1.60;;;;;;;;;;4163899;28;20061;-41
2022/08/19 17:18:55;;;;;;;2.13;1.90;;;;;;;;;;4163891;28;20049;-40
2022/08/19 17:20:56;;;;;;;1.60;1.50;;;;;;;;;;4163826;28;20131;-41
2022/08/19 17:22:57;;;;;;;2.03;1.90;;;;;;;;;;4163744;28;20107;-41
2022/08/19 17:24:59;;;;;;;2.35;1.60;;;;;;;;;;4162466;28;20053;-41
2022/08/19 17:27:00;;;;;;;2.22;1.80;;;;;;;;;;4163921;28;20111;-42
2022/08/19 17:29:02;;;;;;;2.38;2.17;;;;;;;;;;4163153;28;20112;-41
2022/08/19 17:31:05;;;;;;;2.38;1.77;;;;;;;;;;4162212;28;20124;-41
2022/08/19 17:33:06;;;;;;;2.35;2.15;;;;;;;;;;4163840;28;20072;-41
2022/08/19 17:35:08;;;;;;;1.67;1.58;;;;;;;;;;4163772;28;20159;-41
2022/08/19 17:37:09;;;;;;;2.30;2.10;;;;;;;;;;4163838;28;20111;-41
2022/08/19 17:39:10;;;;;;;1.98;1.60;;;;;;;;;;4163837;28;20428;-41
2022/08/19 17:41:12;;;;;;;2.42;1.85;;;;;;;;;;4162388;28;20108;-41
2022/08/19 17:43:14;;;;;;;2.00;1.88;;;;;;;;;;4163269;28;20191;-41
2022/08/19 17:45:16;;;;;;;2.30;2.03;;;;;;;;;;4163673;28;20382;-41
2022/08/19 17:47:18;;;;;;;2.30;2.10;;;;;;;;;;4163217;28;20153;-41
2022/08/19 17:49:19;;;;;;;2.00;1.73;;;;;;;;;;4163575;28;20381;-40
2022/08/19 17:51:42;;;;;;;2.65;2.00;;;;;;;;;;4146025;28;20355;-41
2022/08/19 17:53:44;;;;;;;2.05;1.73;;;;;;;;;;4163199;28;20107;-41
2022/08/19 17:55:46;;;;;;;1.98;1.88;;;;;;;;;;4163574;28;20111;-41
2022/08/19 17:57:48;;;;;;;1.70;1.60;;;;;;;;;;4163061;28;20057;-41
2022/08/19 17:59:50;;;;;;;2.25;2.05;;;;;;;;;;4163370;28;20061;-41
2022/08/19 18:01:51;;;;;;;2.00;1.80;;;;;;;;;;4163556;28;20485;-41
2022/08/19 18:03:52;;;;;;;2.03;1.83;;;;;;;;;;4163612;28;20068;-41
2022/08/19 18:05:53;;;;;;;2.28;2.00;;;;;;;;;;4163344;28;20053;-41
2022/08/19 18:07:56;;;;;;;3.65;1.85;;;;;;;;;;4163279;28;20329;-41
2022/08/19 18:09:57;;;;;;;1.80;1.70;;;;;;;;;;4162927;28;20103;-41
2022/08/19 18:11:58;;;;;;;3.20;1.90;;;;;;;;;;4163377;28;20053;-41
2022/08/19 18:14:00;;;;;;;1.95;1.85;;;;;;;;;;4162907;28;20061;-42
2022/08/19 18:16:02;;;;;;;2.15;1.95;;;;;;;;;;4163465;28;20072;-41
2022/08/19 18:18:03;;;;;;;2.17;2.00;;;;;;;;;;4163058;28;20127;-41
2022/08/19 18:20:07;;;;;;;1.80;1.70;;;;;;;;;;4163480;28;20095;-40
2022/08/19 18:22:35;;;;;;;2.05;1.83;;;;;;;;;;4163235;28;20054;-41
2022/08/19 18:24:39;;;;;;;3.15;2.20;;;;;;;;;;4161823;28;20477;-43
2022/08/19 18:26:40;;;;;;;2.30;2.10;;;;;;;;;;4163440;28;20076;-41
2022/08/19 18:28:41;;;;;;;2.25;1.70;;;;;;;;;;4162397;28;20463;-41
2022/08/19 18:30:42;;;;;;;2.17;1.98;;;;;;;;;;4162989;28;20045;-42
2022/08/19 18:32:45;;;;;;;1.98;1.83;;;;;;;;;;4145109;28;20593;-41
2022/08/19 18:34:46;;;;;;;2.03;1.88;;;;;;;;;;4163275;28;20053;-40
2022/08/19 18:36:48;;;;;;;2.05;1.85;;;;;;;;;;4163028;28;20527;-41
2022/08/19 18:50:30;;;;;;;1.98;1.85;;;;;;;;;;4158245;28;20126;-41
2022/08/19 18:52:32;;;;;;;2.28;2.00;;;;;;;;;;4160155;28;20580;-41
2022/08/19 18:54:34;;;;;;;1.88;1.70;;;;;;;;;;4158554;28;20137;-41
2022/08/19 18:56:38;;;;;;;1.83;1.65;;;;;;;;;;4162513;28;20103;-41
2022/08/19 18:58:40;;;;;;;1.63;1.52;;;;;;;;;;4162410;28;20192;-41
2022/08/19 19:00:42;;;;;;;2.00;1.90;;;;;;;;;;4162645;28;20115;-41
2022/08/19 19:02:44;;;;;;;2.55;1.98;;;;;;;;;;4161392;28;20049;-41
2022/08/19 19:04:46;;;;;;;1.90;1.80;;;;;;;;;;4163022;28;20141;-41
2022/08/19 19:06:47;;;;;;;2.25;2.05;;;;;;;;;;4162942;28;20119;-40
2022/08/19 19:08:49;;;;;;;1.67;1.58;;;;;;;;;;4162765;28;20057;-41
2022/08/19 19:10:50;;;;;;;2.03;1.90;;;;;;;;;;4162598;28;20053;-41
2022/08/19 19:12:52;;;;;;;2.17;1.75;;;;;;;;;;4162238;28;20058;-41
2022/08/19 19:14:53;;;;;;;1.80;1.70;;;;;;;;;;4162773;28;20331;-41
2022/08/19 19:16:57;;;;;;;2.08;1.90;;;;;;;;;;4162446;28;20099;-41
2022/08/19 19:18:58;;;;;;;2.15;1.95;;;;;;;;;;4161160;28;20638;-41
2022/08/19 19:20:59;;;;;;;2.70;2.17;;;;;;;;;;4161391;28;20049;-41
2022/08/19 19:23:01;;;;;;;2.13;2.03;;;;;;;;;;4147098;28;20460;-41
2022/08/19 19:25:03;;;;;;;1.90;1.73;;;;;;;;;;4164604;28;20517;-41
2022/08/19 19:27:07;;;;;;;3.53;2.00;;;;;;;;;;4165858;28;20119;-41
2022/08/19 19:29:08;;;;;;;1.75;1.65;;;;;;;;;;4165412;28;20057;-41
2022/08/19 19:31:21;;;;;;;1.92;1.83;;;;;;;;;;4164666;28;20045;-41
2022/08/19 19:33:23;;;;;;;2.03;1.83;;;;;;;;;;4164318;28;20492;-41
2022/08/19 19:35:24;;;;;;;2.35;2.15;;;;;;;;;;4166077;28;20111;-41
2022/08/19 19:37:26;;;;;;;2.15;1.88;;;;;;;;;;4165733;28;20108;-41
2022/08/19 19:39:27;;;;;;;2.78;2.10;;;;;;;;;;4165706;28;20060;-41
2022/08/19 19:41:28;;;;;;;2.50;2.30;;;;;;;;;;4165990;28;20208;-41
2022/08/19 19:43:29;;;;;;;2.17;1.90;;;;;;;;;;4165187;28;20116;-41
2022/08/19 19:45:31;;;;;;;2.08;1.88;;;;;;;;;;4164305;28;20057;-41
2022/08/19 19:47:32;;;;;;;2.47;2.28;;;;;;;;;;4165417;28;20335;-41
2022/08/19 19:49:33;;;;;;;2.30;2.10;;;;;;;;;;4165661;28;20452;-41
2022/08/19 19:51:37;;;;;;;1.90;1.80;;;;;;;;;;4165680;28;20187;-41
2022/08/19 19:53:38;;;;;;;2.30;2.00;;;;;;;;;;4165686;28;20115;-41
2022/08/19 19:55:41;;;;;;;3.30;1.85;;;;;;;;;;4165782;28;20111;-41
2022/08/19 19:57:44;;;;;;;2.33;2.13;;;;;;;;;;4163849;28;20149;-40
2022/08/19 19:59:45;;;;;;;2.13;1.88;;;;;;;;;;4165304;28;20439;-40
2022/08/19 20:01:46;;;;;;;2.03;1.83;;;;;;;;;;4165136;28;20057;-42
2022/08/19 20:03:48;;;;;;;2.30;2.10;;;;;;;;;;4165234;28;20140;-40
2022/08/19 20:05:49;;;;;;;2.25;1.73;;;;;;;;;;4149746;28;20521;-41
2022/08/19 20:10:12;;;;;;;1.80;1.70;;;;;;;;;;4147183;28;20084;-40
2022/08/19 20:12:13;;;;;;;2.05;1.85;;;;;;;;;;4146932;28;20054;-41
2022/08/19 20:14:20;;;;;;;1.98;1.88;;;;;;;;;;4147049;28;20346;-41
2022/08/19 20:16:24;;;;;;;2.95;2.10;;;;;;;;;;4146939;28;20069;-41
2022/08/19 20:18:25;;;;;;;1.90;1.80;;;;;;;;;;4153798;28;20715;-41
2022/08/19 20:20:27;;;;;;;2.25;2.05;;;;;;;;;;4160251;28;20111;-43
2022/08/19 20:22:28;;;;;;;2.17;2.08;;;;;;;;;;4162859;28;20107;-41
2022/08/19 20:24:34;;;;;;;2.75;2.05;;;;;;;;;;4163345;28;20052;-40
2022/08/19 20:26:35;;;;;;;2.20;2.00;;;;;;;;;;4163290;28;20054;-41
2022/08/19 20:28:36;;;;;;;2.00;1.90;;;;;;;;;;4162338;28;20056;-41
2022/08/19 20:30:38;;;;;;;2.20;1.80;;;;;;;;;;4161760;28;20374;-41
2022/08/19 20:32:45;;;;;;;2.92;2.25;;;;;;;;;;4162638;28;20465;-41
2022/08/19 20:34:48;;;;;;;2.47;2.10;;;;;;;;;;4162905;28;20111;-41
2022/08/19 20:36:49;;;;;;;2.30;2.10;;;;;;;;;;4161799;28;20405;-41
2022/08/19 20:38:51;;;;;;;2.08;1.90;;;;;;;;;;4160376;28;20147;-41
2022/08/19 20:40:52;;;;;;;1.88;1.77;;;;;;;;;;4164217;28;20065;-41
2022/08/19 20:42:53;;;;;;;2.00;1.80;;;;;;;;;;4164556;28;20175;-41
2022/08/19 20:44:54;;;;;;;1.52;1.42;;;;;;;;;;4164793;28;20053;-41
2022/08/19 20:46:56;;;;;;;3.22;2.00;;;;;;;;;;4164658;28;20582;-41
2022/08/19 20:48:57;;;;;;;2.00;1.85;;;;;;;;;;4146891;28;20053;-40
2022/08/19 20:50:59;;;;;;;1.83;1.70;;;;;;;;;;4163436;28;20107;-41
2022/08/19 20:53:03;;;;;;;1.85;1.75;;;;;;;;;;4152116;28;20070;-41
2022/08/19 20:55:04;;;;;;;2.33;1.98;;;;;;;;;;4161378;28;20124;-41
2022/08/19 20:57:07;;;;;;;2.03;1.63;;;;;;;;;;4161328;28;20069;-41
2022/08/19 20:59:09;;;;;;;2.28;1.92;;;;;;;;;;4144789;28;20104;-41
2022/08/19 21:01:10;;;;;;;2.28;2.08;;;;;;;;;;4146184;28;20057;-41
2022/08/19 21:03:15;;;;;;;2.00;1.85;;;;;;;;;;4146185;28;20061;-41
2022/08/19 21:05:16;;;;;;;2.25;1.90;;;;;;;;;;4160238;28;20057;-41
2022/08/19 21:07:18;;;;;;;1.73;1.63;;;;;;;;;;4149054;28;20060;-41
2022/08/19 21:09:19;;;;;;;1.90;1.80;;;;;;;;;;4164244;28;20523;-41
2022/08/19 21:11:21;;;;;;;2.10;2.00;;;;;;;;;;4164327;28;20107;-41
2022/08/19 21:13:23;;;;;;;2.05;1.85;;;;;;;;;;4163753;28;20382;-40
2022/08/19 21:15:24;;;;;;;2.30;2.10;;;;;;;;;;4164290;28;20053;-41
2022/08/19 21:17:25;;;;;;;1.90;1.70;;;;;;;;;;4162799;28;20406;-41
2022/08/19 21:19:27;;;;;;;2.20;2.00;;;;;;;;;;4164593;28;20123;-40
2022/08/19 21:21:28;;;;;;;2.70;2.35;;;;;;;;;;4164160;28;20187;-41
2022/08/19 21:23:30;;;;;;;1.95;1.80;;;;;;;;;;4164066;28;20053;-41
2022/08/19 21:25:31;;;;;;;2.13;1.95;;;;;;;;;;4164132;28;20057;-42
2022/08/19 21:27:32;;;;;;;2.03;1.80;;;;;;;;;;4162418;28;20068;-41
2022/08/19 21:29:36;;;;;;;1.92;1.80;;;;;;;;;;4162926;28;20084;-41
2022/08/19 21:31:37;;;;;;;2.33;2.13;;;;;;;;;;4164200;28;20107;-40
2022/08/19 21:33:38;;;;;;;1.80;1.70;;;;;;;;;;4163826;28;20117;-42
2022/08/19 21:35:40;;;;;;;2.53;2.00;;;;;;;;;;4162790;28;20530;-41
2022/08/19 21:37:41;;;;;;;2.03;1.83;;;;;;;;;;4163841;28;20057;-41
2022/08/19 21:39:43;;;;;;;1.80;1.70;;;;;;;;;;4163872;28;20053;-41
2022/08/19 21:41:44;;;;;;;1.90;1.80;;;;;;;;;;4164153;28;20103;-40
2022/08/19 21:43:45;;;;;;;1.92;1.83;;;;;;;;;;4163193;28;20080;-41
2022/08/19 21:45:46;;;;;;;2.03;1.85;;;;;;;;;;4163143;28;20061;-41
2022/08/19 21:47:48;;;;;;;2.95;1.63;;;;;;;;;;4146013;28;20050;-41
2022/08/19 21:49:49;;;;;;;2.13;1.92;;;;;;;;;;4163699;28;20388;-40
2022/08/19 21:51:50;;;;;;;1.90;1.80;;;;;;;;;;4163582;28;20122;-42
2022/08/19 21:53:52;;;;;;;2.35;2.15;;;;;;;;;;4163856;28;20056;-41
2022/08/19 21:55:53;;;;;;;2.35;2.15;;;;;;;;;;4163664;28;20496;-40
2022/08/19 21:57:58;;;;;;;2.15;1.95;;;;;;;;;;4163033;28;20050;-41
2022/08/19 22:00:00;;;;;;;2.33;2.13;;;;;;;;;;4163809;28;20053;-40
2022/08/19 22:02:01;;;;;;;2.03;1.83;;;;;;;;;;4163781;28;20049;-41
2022/08/19 22:04:03;;;;;;;2.30;2.10;;;;;;;;;;4163266;28;20515;-41
2022/08/19 22:06:05;;;;;;;2.17;1.98;;;;;;;;;;4163800;28;20053;-41
2022/08/19 22:08:06;;;;;;;1.70;1.60;;;;;;;;;;4163476;28;20073;-40
2022/08/19 22:10:08;;;;;;;1.90;1.80;;;;;;;;;;4162242;28;20515;-41
2022/08/19 22:12:24;;;;;;;1.95;1.85;;;;;;;;;;4163513;28;20053;-41
2022/08/19 22:14:26;;;;;;;1.80;1.70;;;;;;;;;;4163370;28;20049;-40
2022/08/19 22:16:28;;;;;;;1.83;1.73;;;;;;;;;;4146035;28;20058;-41
2022/08/19 22:18:30;;;;;;;2.30;2.10;;;;;;;;;;4163126;28;20206;-41
2022/08/19 22:20:31;;;;;;;1.83;1.73;;;;;;;;;;4163524;28;20049;-41
2022/08/19 22:22:33;;;;;;;1.80;1.63;;;;;;;;;;4145641;28;20054;-41
2022/08/19 22:24:34;;;;;;;2.20;2.00;;;;;;;;;;4163509;28;20191;-41
2022/08/19 22:26:35;;;;;;;2.08;1.58;;;;;;;;;;4163022;28;20053;-41
2022/08/19 22:28:38;;;;;;;1.90;1.80;;;;;;;;;;4162812;28;20061;-41
2022/08/19 22:30:41;;;;;;;1.95;1.77;;;;;;;;;;4161945;28;20053;-41
2022/08/19 22:32:50;;;;;;;1.63;1.52;;;;;;;;;;4162937;28;20095;-41
2022/08/19 22:34:52;;;;;;;2.20;2.08;;;;;;;;;;4163288;28;20100;-41
2022/08/19 22:36:53;;;;;;;2.25;2.13;;;;;;;;;;4163111;28;20389;-41
2022/08/19 22:38:54;;;;;;;2.20;2.00;;;;;;;;;;4163172;28;20057;-40
2022/08/19 22:40:56;;;;;;;2.00;1.80;;;;;;;;;;4163024;28;20218;-41
2022/08/19 22:42:58;;;;;;;3.03;2.22;;;;;;;;;;4161161;28;20120;-41
2022/08/19 22:45:00;;;;;;;2.08;1.88;;;;;;;;;;4162929;28;20108;-40
2022/08/19 22:47:01;;;;;;;1.90;1.80;;;;;;;;;;4162997;28;20386;-41
2022/08/19 22:49:04;;;;;;;2.05;1.88;;;;;;;;;;4160680;28;20053;-41
2022/08/19 22:53:25;;;;;;;2.10;1.90;;;;;;;;;;4146483;28;20409;-41
2022/08/19 22:55:28;;;;;;;1.80;1.70;;;;;;;;;;4146431;28;20497;-40
2022/08/19 22:57:30;;;;;;;2.20;2.00;;;;;;;;;;4144842;28;20054;-41
2022/08/19 22:59:31;;;;;;;1.80;1.70;;;;;;;;;;4146526;28;20494;-40
2022/08/19 23:01:34;;;;;;;2.28;1.90;;;;;;;;;;4146208;28;20100;-40
2022/08/19 23:03:35;;;;;;;2.67;2.00;;;;;;;;;;4146556;28;20050;-41
2022/08/19 23:05:36;;;;;;;1.77;1.60;;;;;;;;;;4146539;28;20556;-40
2022/08/19 23:07:38;;;;;;;1.75;1.65;;;;;;;;;;4146574;28;20204;-41
2022/08/19 23:09:39;;;;;;;2.25;2.00;;;;;;;;;;4146453;28;20058;-41
2022/08/19 23:11:40;;;;;;;2.03;1.92;;;;;;;;;;4146392;28;20058;-41
2022/08/19 23:13:41;;;;;;;2.20;2.00;;;;;;;;;;4144697;28;20096;-41
2022/08/19 23:15:45;;;;;;;1.80;1.70;;;;;;;;;;4146619;28;20057;-41
2022/08/19 23:17:46;;;;;;;1.77;1.67;;;;;;;;;;4144934;28;20061;-41
2022/08/19 23:19:47;;;;;;;2.10;2.00;;;;;;;;;;4145109;28;20112;-41
2022/08/19 23:21:49;;;;;;;1.95;1.85;;;;;;;;;;4146363;28;20448;-42
2022/08/19 23:23:50;;;;;;;1.88;1.77;;;;;;;;;;4146229;28;20080;-41
2022/08/19 23:25:52;;;;;;;1.85;1.75;;;;;;;;;;4146323;28;20405;-41
2022/08/19 23:30:26;;;;;;;;;;;;;;;;;;4146943;28;20057;-40
2022/08/19 23:32:28;;;;;;;2.08;1.98;;;;;;;;;;4146114;28;19921;-41
2022/08/19 23:34:29;;;;;;;1.70;1.60;;;;;;;;;;4144880;28;20120;-41
2022/08/19 23:36:30;;;;;;;1.85;1.75;;;;;;;;;;4143556;28;20104;-41
2022/08/19 23:38:31;;;;;;;2.08;1.88;;;;;;;;;;4144221;28;20069;-41
2022/08/19 23:40:34;;;;;;;1.90;1.80;;;;;;;;;;4144536;28;20425;-41
2022/08/19 23:42:39;;;;;;;2.30;1.92;;;;;;;;;;4143882;28;20095;-41
2022/08/19 23:44:41;;;;;;;1.75;1.65;;;;;;;;;;4142899;28;20085;-41
2022/08/19 23:46:42;;;;;;;2.00;1.90;;;;;;;;;;4144381;28;20058;-42